Port Columbus International Airport Columbus US
ICAO: KCMH
IATA: CMH
Category: Large
Scheduled Services: Yes

Elevation: 815 ft
TransAlt. 18000 ft.

Airport Communications:
COLUMBUS APP/DEP:33.822
COLUMBUS APP/DEP:118.2
ATIS:124.6
CLNC DEL:126.3
GND:121.9
DAYTON RDO:122.2
TWR:132.7
UNICOM:122.95

KCMH Zoom In..

If you have problems with the map follow the link
https://www.worldairports.se/pages/airport.php?
ICAO=KCMH

Runways:

(A) RW 10L length 8000 ft width 150 ft
ILS 109.10 / hdg 101

(B) RW 10R length 10113 ft width 150 ft
ILS 111.75 / hdg 101

(C) RW 28L length 10113 ft width 150 ft
ILS 111.75 / hdg 281

(D) RW 28R length 8000 ft width 150 ft
ILS 109.10 / hdg 281

Location; KCMH
Day. 14 / Time. 10.51 Zulu
* Altimeter: 30.49
* Temperature: -04° c. -24.8°f.
* Wind from: 360° Speed 07 kn.
Dewpoint: -09° c.
Visibility: 10 Statute Miles.
Clouds: Scattered 25000 ft.

KCMH 141051Z 36007KT 10SM SCT250 M04/M09 A3049 RMK AO2 SLP335 T10441094


Wind From 360°
Speed 07 kn.

 
 
jpsmedia.com for Web Design worldairports.se 2018   terms of use